Time;durP1;ratioP1;P1;durP2;ratioP2;P2;SDS_P1;SDS_P2;PMS_P1;PMS_P2;Temp;Humidity;BMP_temperature;BMP_pressure;BME280_temperature;BME280_humidity;BME280_pressure;Samples;Min_cycle;Max_cycle;Signal;HPM_P1;HPM_P2
2020/12/03 00:00:28;;;;;;;;;;;;;;;2.07;98.79;98407.59;5029972;28;19914;-80
2020/12/03 00:02:53;;;;;;;;;;;;;;;1.99;98.82;98407.66;5029746;28;19914;-79
2020/12/03 00:05:19;;;;;;;;;;;;;;;1.96;99.12;98412.75;5031981;28;19920;-79
2020/12/03 00:07:44;;;;;;;;;;;;;;;1.87;99.28;98407.72;5016609;28;19921;-80
2020/12/03 00:10:10;;;;;;;;;;;;;;;2.01;99.24;98395.78;5008201;28;20012;-80
2020/12/03 00:12:35;;;;;;;;;;;;;;;1.88;98.72;98402.63;5013010;28;20410;-80
2020/12/03 00:15:00;;;;;;;;;;;;;;;1.90;98.56;98397.56;5029492;28;19910;-80
2020/12/03 00:17:25;;;;;;;;;;;;;;;1.79;99.30;98394.25;5032501;28;19913;-80
2020/12/03 00:19:51;;;;;;;;;;;;;;;1.71;99.58;98389.22;5016350;28;19913;-80
2020/12/03 00:22:16;;;;;;;;;;;;;;;1.78;99.67;98384.94;5004474;28;19914;-80
2020/12/03 00:24:41;;;;;;;;;;;;;;;1.72;99.40;98377.38;5028212;28;19920;-79
2020/12/03 00:27:10;;;;;;;;;;;;;;;1.64;99.46;98373.19;5022671;28;20271;-80
2020/12/03 00:29:35;;;;;;;;;;;;;;;1.77;99.48;98368.03;5029820;28;19928;-79
2020/12/03 00:32:01;;;;;;;;;;;;;;;1.83;99.39;98362.91;5014013;28;19917;-80
2020/12/03 00:34:26;;;;;;;;;;;;;;;1.70;99.35;98366.38;5012771;28;19913;-79
2020/12/03 00:36:51;;;;;;;;;;;;;;;1.83;99.28;98352.75;5013814;28;19920;-79
2020/12/03 00:39:17;;;;;;;;;;;;;;;1.87;98.73;98347.66;5029462;28;19913;-79
2020/12/03 00:41:48;;;;;;;;;;;;;;;1.97;98.65;98356.03;5014413;28;19913;-79
2020/12/03 00:44:13;;;;;;;;;;;;;;;1.85;98.68;98353.59;5032217;28;19917;-79
2020/12/03 00:46:38;;;;;;;;;;;;;;;1.80;98.88;98355.31;5015942;28;19925;-79
2020/12/03 00:49:04;;;;;;;;;;;;;;;1.95;99.09;98345.03;5015942;28;19913;-80
2020/12/03 00:51:29;;;;;;;;;;;;;;;1.80;98.88;98342.59;5031767;28;19964;-80
2020/12/03 00:53:54;;;;;;;;;;;;;;;1.96;98.78;98339.13;5020366;28;20374;-79
2020/12/03 00:56:20;;;;;;;;;;;;;;;1.98;98.54;98327.22;5014062;28;19919;-79
2020/12/03 00:58:46;;;;;;;;;;;;;;;1.71;98.56;98319.84;5013528;28;19959;-79
2020/12/03 01:01:12;;;;;;;;;;;;;;;1.81;98.90;98317.22;5034541;28;20368;-80
2020/12/03 01:03:37;;;;;;;;;;;;;;;1.93;98.48;98317.97;5013549;28;19914;-79
2020/12/03 01:06:03;;;;;;;;;;;;;;;1.82;98.68;98315.53;5043549;28;19913;-79
2020/12/03 01:08:28;;;;;;;;;;;;;;;1.88;98.94;98312.94;5015778;28;20441;-79
2020/12/03 01:10:53;;;;;;;;;;;;;;;1.90;98.50;98312.94;5031945;28;19914;-82
2020/12/03 01:13:18;;;;;;;;;;;;;;;1.81;98.68;98313.84;5032339;28;20369;-80
2020/12/03 01:15:44;;;;;;;;;;;;;;;1.91;98.73;98310.38;5017789;28;19928;-80
2020/12/03 01:18:09;;;;;;;;;;;;;;;1.90;98.36;98313.78;5037793;28;19917;-80
2020/12/03 01:20:35;;;;;;;;;;;;;;;1.95;98.93;98306.94;5032306;28;20489;-80
2020/12/03 01:23:00;;;;;;;;;;;;;;;1.76;99.52;98303.72;5032004;28;19920;-80
2020/12/03 01:25:26;;;;;;;;;;;;;;;1.73;99.04;98296.13;5015291;28;20374;-80
2020/12/03 01:27:51;;;;;;;;;;;;;;;1.71;99.46;98300.41;5029048;28;19969;-79
2020/12/03 01:30:18;;;;;;;;;;;;;;;1.69;99.21;98299.56;5014806;28;19914;-80
2020/12/03 01:32:43;;;;;;;;;;;;;;;1.83;99.06;98295.22;5016047;28;19913;-80
2020/12/03 01:35:09;;;;;;;;;;;;;;;1.68;98.77;98282.63;5031848;28;19917;-80
2020/12/03 01:37:35;;;;;;;;;;;;;;;1.61;99.13;98289.44;5015944;28;19913;-80
2020/12/03 01:40:00;;;;;;;;;;;;;;;1.74;99.16;98281.75;5032315;28;20324;-80
2020/12/03 01:42:25;;;;;;;;;;;;;;;1.59;99.16;98275.94;5016144;28;19963;-80
2020/12/03 01:44:52;;;;;;;;;;;;;;;1.74;99.46;98269.06;5033599;28;19913;-80
2020/12/03 01:47:23;;;;;;;;;;;;;;;1.81;99.06;98265.63;5015469;28;19917;-80
2020/12/03 01:49:48;;;;;;;;;;;;;;;1.66;98.98;98262.31;5015582;28;19924;-80
2020/12/03 01:52:13;;;;;;;;;;;;;;;1.68;98.80;98252.19;5021112;28;19917;-79
2020/12/03 01:54:39;;;;;;;;;;;;;;;1.70;99.35;98249.63;5032370;28;19913;-80
2020/12/03 01:57:04;;;;;;;;;;;;;;;1.64;99.13;98260.66;5032966;28;19913;-80
2020/12/03 01:59:43;;;;;;;;;;;;;;;1.77;98.80;98257.16;5034729;28;19920;-80
2020/12/03 02:02:09;;;;;;;;;;;;;;;1.84;98.68;98252.88;5034893;28;20371;-80
2020/12/03 02:04:34;;;;;;;;;;;;;;;1.64;98.75;98251.38;5035034;28;20012;-80
2020/12/03 02:07:04;;;;;;;;;;;;;;;1.70;98.76;98249.63;5036356;28;19964;-80
2020/12/03 02:09:29;;;;;;;;;;;;;;;1.94;98.34;98239.25;5033388;28;20516;-80
2020/12/03 02:11:55;;;;;;;;;;;;;;;1.91;98.79;98239.28;5038411;28;19921;-80
2020/12/03 02:14:20;;;;;;;;;;;;;;;1.74;98.35;98229.28;5036744;28;20358;-80
2020/12/03 02:16:45;;;;;;;;;;;;;;;1.68;98.51;98227.63;5036855;28;19974;-80
2020/12/03 02:19:19;;;;;;;;;;;;;;;1.81;98.81;98227.53;5036565;28;20387;-80
2020/12/03 02:21:44;;;;;;;;;;;;;;;1.70;99.28;98214.94;5038260;28;20048;-80
2020/12/03 02:24:10;;;;;;;;;;;;;;;1.71;98.41;98216.63;5036681;28;19956;-80
2020/12/03 02:26:35;;;;;;;;;;;;;;;1.71;99.00;98211.56;5037830;28;19920;-79
2020/12/03 02:29:00;;;;;;;;;;;;;;;1.73;98.99;98216.59;5036722;28;19920;-80
2020/12/03 02:31:25;;;;;;;;;;;;;;;1.63;99.29;98208.22;5035905;28;20461;-79
2020/12/03 02:33:51;;;;;;;;;;;;;;;1.79;99.11;98203.84;5036798;28;19920;-80
2020/12/03 02:36:16;;;;;;;;;;;;;;;1.74;98.98;98203.06;5032088;28;20409;-80
2020/12/03 02:38:41;;;;;;;;;;;;;;;1.83;98.68;98197.91;5036077;28;19917;-80
2020/12/03 02:41:07;;;;;;;;;;;;;;;1.68;99.33;98186.19;5035627;28;19913;-80
2020/12/03 02:43:32;;;;;;;;;;;;;;;1.64;99.42;98180.31;5036356;28;19920;-79
2020/12/03 02:45:57;;;;;;;;;;;;;;;1.78;99.33;98176.78;5019778;28;20421;-80
2020/12/03 02:48:23;;;;;;;;;;;;;;;1.73;99.61;98173.44;5026531;28;19922;-80
2020/12/03 02:50:48;;;;;;;;;;;;;;;1.74;99.01;98160.75;5017814;28;19979;-80
2020/12/03 02:53:13;;;;;;;;;;;;;;;1.64;99.28;98159.16;5024591;28;19965;-80
2020/12/03 02:55:39;;;;;;;;;;;;;;;1.76;99.38;98158.22;5036114;28;19913;-80
2020/12/03 02:58:05;;;;;;;;;;;;;;;1.80;99.46;98155.63;5017830;28;19932;-80
2020/12/03 03:00:30;;;;;;;;;;;;;;;1.60;99.79;98150.75;5035490;28;19913;-79
2020/12/03 03:02:55;;;;;;;;;;;;;;;1.64;99.83;98146.47;5035319;28;19913;-80
2020/12/03 03:05:21;;;;;;;;;;;;;;;1.73;99.93;98148.91;5019369;28;20333;-79
2020/12/03 03:07:46;;;;;;;;;;;;;;;1.66;99.58;98143.03;5035218;28;20464;-80
2020/12/03 03:10:12;;;;;;;;;;;;;;;1.58;100.00;98134.69;5028492;28;20004;-79
2020/12/03 03:12:37;;;;;;;;;;;;;;;1.64;99.67;98134.63;5018395;28;20292;-80
2020/12/03 03:15:03;;;;;;;;;;;;;;;1.64;99.68;98119.41;5016809;28;19924;-79
2020/12/03 03:17:29;;;;;;;;;;;;;;;1.63;99.71;98124.50;5032272;28;20406;-81
2020/12/03 03:19:54;;;;;;;;;;;;;;;1.72;99.60;98123.56;5019611;28;19920;-80
2020/12/03 03:22:19;;;;;;;;;;;;;;;1.57;100.00;98122.84;5036895;28;19924;-79
2020/12/03 03:24:45;;;;;;;;;;;;;;;1.67;100.00;98124.44;5035609;28;19928;-80
2020/12/03 03:27:10;;;;;;;;;;;;;;;1.67;99.86;98123.59;5024095;28;20390;-80
2020/12/03 03:29:35;;;;;;;;;;;;;;;1.70;99.62;98107.50;5035155;28;19913;-79
2020/12/03 03:32:00;;;;;;;;;;;;;;;1.68;99.98;98110.88;5035201;28;20024;-79
2020/12/03 03:34:26;;;;;;;;;;;;;;;1.61;100.00;98109.28;5035119;28;19955;-80
2020/12/03 03:36:51;;;;;;;;;;;;;;;1.74;99.95;98104.06;5035381;28;20317;-79
2020/12/03 03:39:18;;;;;;;;;;;;;;;1.70;99.77;98090.56;5025079;28;19918;-80
2020/12/03 03:41:43;;;;;;;;;;;;;;;1.63;99.95;98091.50;5014871;28;20432;-79
2020/12/03 03:44:09;;;;;;;;;;;;;;;1.77;99.59;98088.81;5015096;28;19921;-80
2020/12/03 03:46:34;;;;;;;;;;;;;;;1.63;99.67;98082.19;5014826;28;19917;-79
2020/12/03 03:48:59;;;;;;;;;;;;;;;1.68;99.80;98080.44;5047365;28;19924;-80
2020/12/03 03:51:25;;;;;;;;;;;;;;;1.70;99.74;98074.50;5016934;28;19914;-80
2020/12/03 03:53:50;;;;;;;;;;;;;;;1.68;99.70;98082.97;5034631;28;19952;-80
2020/12/03 03:56:15;;;;;;;;;;;;;;;1.76;99.51;98077.81;5036377;28;19935;-80
2020/12/03 03:58:40;;;;;;;;;;;;;;;1.72;99.43;98065.19;5034924;28;19913;-79
2020/12/03 04:01:06;;;;;;;;;;;;;;;1.60;99.56;98074.63;5017480;28;19920;-80
2020/12/03 04:03:31;;;;;;;;;;;;;;;1.67;99.62;98078.75;5018040;28;19913;-79
2020/12/03 04:05:57;;;;;;;;;;;;;;;1.68;99.87;98070.28;5018733;28;19913;-79
2020/12/03 04:08:23;;;;;;;;;;;;;;;1.74;99.44;98084.59;5034533;28;19917;-79
2020/12/03 04:10:50;;;;;;;;;;;;;;;1.70;99.50;98079.59;5018168;28;19963;-79
2020/12/03 04:13:15;;;;;;;;;;;;;;;1.75;99.44;98076.13;5034104;28;20417;-80
2020/12/03 04:15:41;;;;;;;;;;;;;;;1.78;99.35;98068.50;5021425;28;19921;-79
2020/12/03 04:18:06;;;;;;;;;;;;;;;1.96;98.74;98059.81;5017895;28;20279;-80
2020/12/03 04:20:31;;;;;;;;;;;;;;;1.85;98.62;98056.56;5016665;28;19920;-79
2020/12/03 04:22:57;;;;;;;;;;;;;;;1.83;99.40;98053.19;5033083;28;19919;-80
2020/12/03 04:25:22;;;;;;;;;;;;;;;1.81;99.02;98062.53;5034152;28;20473;-80
2020/12/03 04:27:47;;;;;;;;;;;;;;;1.81;98.80;98055.75;5032919;28;19924;-79
2020/12/03 04:30:13;;;;;;;;;;;;;;;1.88;99.08;98053.97;5015723;28;19913;-80
2020/12/03 04:32:38;;;;;;;;;;;;;;;1.80;98.99;98043.06;5033236;28;20366;-80
2020/12/03 04:35:05;;;;;;;;;;;;;;;1.65;99.41;98042.41;5032994;28;19913;-80
2020/12/03 04:37:30;;;;;;;;;;;;;;;1.61;99.78;98038.22;5032839;28;19913;-80
2020/12/03 04:39:55;;;;;;;;;;;;;;;1.75;98.98;98040.59;5016442;28;19982;-79
2020/12/03 04:42:22;;;;;;;;;;;;;;;1.67;99.20;98038.16;5033316;28;19944;-80
2020/12/03 04:44:47;;;;;;;;;;;;;;;1.73;99.29;98037.22;5020598;28;19956;-80
2020/12/03 04:47:22;;;;;;;;;;;;;;;1.77;99.38;98038.03;5041355;28;19948;-80
2020/12/03 04:49:48;;;;;;;;;;;;;;;1.81;98.95;98039.69;5033169;28;21760;-80
2020/12/03 04:52:31;;;;;;;;;;;;;;;1.76;99.33;98027.06;5033706;28;19913;-79
2020/12/03 04:55:06;;;;;;;;;;;;;;;1.67;99.00;98033.06;5033845;28;19920;-80
2020/12/03 04:57:39;;;;;;;;;;;;;;;1.78;99.14;98019.41;5034072;28;19913;-79
2020/12/03 05:00:05;;;;;;;;;;;;;;;1.81;99.21;98024.47;5014898;28;20325;-80
2020/12/03 05:03:03;;;;;;;;;;;;;;;1.93;98.63;98026.00;5030702;28;19917;-80
2020/12/03 05:05:34;;;;;;;;;;;;;;;1.80;98.59;98027.84;5028836;28;20027;-79
2020/12/03 05:08:00;;;;;;;;;;;;;;;1.83;98.91;98027.81;5033839;28;20275;-80
2020/12/03 05:10:39;;;;;;;;;;;;;;;1.87;98.84;98017.59;5029000;28;19971;-80
2020/12/03 05:13:07;;;;;;;;;;;;;;;1.98;98.30;98014.06;5028911;28;19924;-80
2020/12/03 05:15:34;;;;;;;;;;;;;;;1.99;98.68;98006.44;5019460;28;20364;-79
2020/12/03 05:18:18;;;;;;;;;;;;;;;1.89;98.66;98007.41;5027101;28;19917;-80
2020/12/03 05:20:54;;;;;;;;;;;;;;;1.86;98.66;98007.47;5029855;28;19917;-80
2020/12/03 05:23:20;;;;;;;;;;;;;;;1.98;98.59;97986.97;5018360;28;19921;-79
2020/12/03 05:25:47;;;;;;;;;;;;;;;1.98;98.56;97991.22;5020660;28;19917;-80
2020/12/03 05:28:21;;;;;;;;;;;;;;;1.90;98.56;97983.72;5028308;28;19924;-80
2020/12/03 05:30:55;;;;;;;;;;;;;;;2.03;98.22;97987.78;5034017;28;19921;-80
2020/12/03 05:33:21;;;;;;;;;;;;;;;2.01;98.59;97981.88;5028155;28;19917;-79
2020/12/03 05:35:47;;;;;;;;;;;;;;;2.01;98.53;97976.78;5019131;28;19917;-81
2020/12/03 05:38:19;;;;;;;;;;;;;;;1.92;98.01;97976.91;5020601;28;20016;-80
2020/12/03 05:41:04;;;;;;;;;;;;;;;1.99;98.29;97973.44;5029190;28;19922;-80
2020/12/03 05:43:29;;;;;;;;;;;;;;;1.94;98.55;97969.25;5026443;28;19932;-80
2020/12/03 05:45:55;;;;;;;;;;;;;;;2.06;98.02;97967.41;5013577;28;19916;-80
2020/12/03 05:48:21;;;;;;;;;;;;;;;1.81;98.84;97953.38;5019701;28;19917;-79
2020/12/03 05:50:46;;;;;;;;;;;;;;;1.88;99.20;97970.19;5031099;28;19959;-80
2020/12/03 05:53:15;;;;;;;;;;;;;;;1.87;98.94;97969.38;5031059;28;19920;-80
2020/12/03 05:55:40;;;;;;;;;;;;;;;1.99;98.82;97967.53;5032514;28;19917;-80
2020/12/03 05:58:21;;;;;;;;;;;;;;;1.87;98.85;97964.28;5029696;28;20005;-79
2020/12/03 06:01:25;;;;;;;;;;;;;;;1.91;98.27;97960.00;5036917;28;19920;-80
2020/12/03 06:04:09;;;;;;;;;;;;;;;1.89;98.78;97961.72;5022367;28;19916;-79
2020/12/03 06:06:53;;;;;;;;;;;;;;;1.97;98.09;97952.31;5031224;28;20313;-80
2020/12/03 06:09:27;;;;;;;;;;;;;;;1.75;98.89;97954.28;5031121;28;19932;-80
2020/12/03 06:12:11;;;;;;;;;;;;;;;1.75;98.97;97948.38;5046872;28;19940;-80
2020/12/03 06:14:52;;;;;;;;;;;;;;;1.78;99.08;97933.97;5031472;28;19920;-80
2020/12/03 06:17:35;;;;;;;;;;;;;;;1.86;98.66;97942.28;5045311;28;19970;-80
2020/12/03 06:20:13;;;;;;;;;;;;;;;1.80;98.83;97928.84;5030462;28;19959;-83
2020/12/03 06:22:44;;;;;;;;;;;;;;;1.91;98.32;97932.06;5031569;28;19913;-80
2020/12/03 06:25:12;;;;;;;;;;;;;;;1.86;98.91;97926.22;5030145;28;20027;-80
2020/12/03 06:27:56;;;;;;;;;;;;;;;1.82;98.73;97922.88;5046029;28;19967;-81
2020/12/03 06:30:23;;;;;;;;;;;;;;;1.73;99.13;97928.09;5031531;28;19984;-80
2020/12/03 06:32:53;;;;;;;;;;;;;;;1.81;98.54;97925.47;5030308;28;19917;-81
2020/12/03 06:35:36;;;;;;;;;;;;;;;1.95;98.30;97930.34;5015448;28;20006;-80
2020/12/03 06:38:14;;;;;;;;;;;;;;;1.78;98.73;97917.88;5020381;28;20015;-80
2020/12/03 06:40:40;;;;;;;;;;;;;;;1.76;98.81;97906.94;5030540;28;20027;-80
2020/12/03 06:43:11;;;;;;;;;;;;;;;1.88;98.80;97924.50;5013812;28;19917;-79
2020/12/03 06:45:41;;;;;;;;;;;;;;;1.88;98.82;97924.50;5031351;28;19962;-80
2020/12/03 06:48:16;;;;;;;;;;;;;;;1.88;98.57;97919.44;5031141;28;19967;-80
2020/12/03 06:50:41;;;;;;;;;;;;;;;1.85;98.82;97915.25;5032184;28;19913;-79
2020/12/03 06:53:06;;;;;;;;;;;;;;;1.80;99.13;97906.00;5031447;28;20374;-79
2020/12/03 06:55:46;;;;;;;;;;;;;;;1.78;99.50;97895.03;5032141;28;19974;-79
2020/12/03 06:58:20;;;;;;;;;;;;;;;1.70;99.62;97892.59;5022923;28;19978;-80
2020/12/03 07:00:54;;;;;;;;;;;;;;;1.66;99.65;97878.28;5030919;28;19925;-80
2020/12/03 07:03:38;;;;;;;;;;;;;;;1.74;99.49;97875.66;5047155;28;20330;-80
2020/12/03 07:06:06;;;;;;;;;;;;;;;1.63;99.71;97868.19;5032000;28;19913;-80
2020/12/03 07:08:58;;;;;;;;;;;;;;;1.66;99.77;97853.72;5032610;28;19948;-79
2020/12/03 07:11:23;;;;;;;;;;;;;;;1.57;99.78;97843.72;5045120;28;19920;-80
2020/12/03 07:13:54;;;;;;;;;;;;;;;1.58;99.92;97847.94;5032188;28;19921;-80
2020/12/03 07:16:38;;;;;;;;;;;;;;;1.64;99.66;97845.34;5031154;28;19921;-78
2020/12/03 07:19:22;;;;;;;;;;;;;;;1.53;99.69;97821.81;5031457;28;19959;-78
2020/12/03 07:22:00;;;;;;;;;;;;;;;1.62;99.58;97820.81;5031149;28;20007;-78
2020/12/03 07:24:26;;;;;;;;;;;;;;;1.52;99.51;97799.81;5030423;28;19928;-78
2020/12/03 07:26:55;;;;;;;;;;;;;;;1.50;99.46;97815.94;5029271;28;19914;-78
2020/12/03 07:29:39;;;;;;;;;;;;;;;1.60;98.57;97808.16;5030666;28;20047;-78
2020/12/03 07:32:04;;;;;;;;;;;;;;;1.57;98.83;97808.19;5030345;28;19953;-78
2020/12/03 07:34:34;;;;;;;;;;;;;;;1.63;98.50;97818.25;5012875;28;19953;-78
2020/12/03 07:37:09;;;;;;;;;;;;;;;1.66;98.49;97800.44;5029299;28;20300;-78
2020/12/03 07:39:35;;;;;;;;;;;;;;;1.61;98.90;97793.78;5029961;28;19913;-79
2020/12/03 07:42:12;;;;;;;;;;;;;;;1.59;98.38;97791.25;5035395;28;19923;-80
2020/12/03 07:44:42;;;;;;;;;;;;;;;1.66;98.66;97797.91;5029548;28;19913;-79
2020/12/03 07:47:33;;;;;;;;;;;;;;;1.65;98.49;97793.69;5029728;28;19921;-80
2020/12/03 07:50:05;;;;;;;;;;;;;;;1.79;98.27;97797.72;5029191;28;19921;-78
2020/12/03 07:52:37;;;;;;;;;;;;;;;1.80;98.31;97789.22;5029439;28;19920;-79
2020/12/03 07:55:27;;;;;;;;;;;;;;;1.70;98.24;97790.25;5028775;28;19974;-78
2020/12/03 07:57:53;;;;;;;;;;;;;;;1.78;98.10;97791.81;5028621;28;19920;-78
2020/12/03 08:00:34;;;;;;;;;;;;;;;1.88;98.01;97795.88;5028130;28;19927;-79
2020/12/03 08:03:00;;;;;;;;;;;;;;;1.82;97.90;97792.59;5045060;28;19975;-78
2020/12/03 08:05:31;;;;;;;;;;;;;;;1.85;97.85;97792.56;5027624;28;19913;-78
2020/12/03 08:07:56;;;;;;;;;;;;;;;1.76;98.29;97778.31;5029895;28;19921;-79
2020/12/03 08:10:35;;;;;;;;;;;;;;;1.75;97.93;97781.69;5028668;28;19962;-80
2020/12/03 08:13:25;;;;;;;;;;;;;;;1.89;97.93;97778.94;5028299;28;19921;-80
2020/12/03 08:15:59;;;;;;;;;;;;;;;1.81;97.70;97776.53;5028498;28;19925;-78
2020/12/03 08:18:36;;;;;;;;;;;;;;;1.76;98.23;97773.22;5027658;28;19921;-78
2020/12/03 08:21:01;;;;;;;;;;;;;;;1.81;98.05;97775.69;5029890;28;19995;-78
2020/12/03 08:23:27;;;;;;;;;;;;;;;1.97;97.76;97783.91;5018903;28;20394;-78
2020/12/03 08:25:52;;;;;;;;;;;;;;;1.92;97.53;97772.97;5028165;28;20552;-79
2020/12/03 08:28:24;;;;;;;;;;;;;;;2.06;97.36;97787.09;5028517;28;19921;-78
2020/12/03 08:30:52;;;;;;;;;;;;;;;2.15;97.27;97777.66;5028582;28;19924;-78
2020/12/03 08:33:26;;;;;;;;;;;;;;;2.14;97.21;97786.13;5044768;28;19932;-78
2020/12/03 08:35:54;;;;;;;;;;;;;;;2.15;97.39;97790.34;5029499;28;19943;-79
2020/12/03 08:38:21;;;;;;;;;;;;;;;2.04;97.57;97782.91;5028756;28;19917;-78
2020/12/03 08:40:47;;;;;;;;;;;;;;;2.17;97.51;97783.56;5029090;28;19917;-79
2020/12/03 08:43:14;;;;;;;;;;;;;;;2.22;97.19;97792.75;5028239;28;19913;-78
2020/12/03 08:45:45;;;;;;;;;;;;;;;2.30;97.14;97787.50;5028143;28;20473;-79
2020/12/03 08:48:12;;;;;;;;;;;;;;;2.24;97.12;97780.84;5028272;28;19929;-79
2020/12/03 08:50:38;;;;;;;;;;;;;;;2.29;97.01;97775.69;5012080;28;19967;-78
2020/12/03 08:53:10;;;;;;;;;;;;;;;2.12;97.27;97765.00;5028288;28;20931;-79
2020/12/03 08:55:39;;;;;;;;;;;;;;;2.19;97.01;97756.41;5028336;28;19959;-79
2020/12/03 08:58:04;;;;;;;;;;;;;;;2.14;97.56;97763.28;5028637;28;19957;-78
2020/12/03 09:00:30;;;;;;;;;;;;;;;2.26;97.27;97763.06;5029747;28;20058;-78
2020/12/03 09:02:55;;;;;;;;;;;;;;;2.33;96.90;97759.53;5028535;28;19913;-78
2020/12/03 09:05:20;;;;;;;;;;;;;;;2.36;97.08;97759.47;5020897;28;20329;-79
2020/12/03 09:07:47;;;;;;;;;;;;;;;2.24;97.16;97754.63;5028455;28;19918;-78
2020/12/03 09:10:12;;;;;;;;;;;;;;;2.30;96.81;97754.50;5029076;28;19968;-79
2020/12/03 09:12:39;;;;;;;;;;;;;;;2.40;96.88;97756.00;5028463;28;20390;-79
2020/12/03 09:15:05;;;;;;;;;;;;;;;2.39;96.54;97753.47;5028286;28;19956;-79
2020/12/03 09:17:33;;;;;;;;;;;;;;;2.36;96.32;97743.41;5022909;28;19917;-79
2020/12/03 09:20:03;;;;;;;;;;;;;;;2.40;96.50;97740.75;5033910;28;19960;-78
2020/12/03 09:22:28;;;;;;;;;;;;;;;2.34;96.71;97740.88;5032664;28;19921;-79
2020/12/03 09:24:54;;;;;;;;;;;;;;;2.36;96.57;97734.06;5032764;28;20279;-78
2020/12/03 09:27:19;;;;;;;;;;;;;;;2.42;96.41;97744.13;5032298;28;19920;-79
2020/12/03 09:29:53;;;;;;;;;;;;;;;2.45;96.78;97743.22;5032081;28;20013;-79
2020/12/03 09:32:20;;;;;;;;;;;;;;;2.61;96.29;97736.13;5031553;28;19996;-80
2020/12/03 09:34:45;;;;;;;;;;;;;;;2.39;96.55;97728.91;5031638;28;20008;-79
2020/12/03 09:37:11;;;;;;;;;;;;;;;2.38;96.14;97732.34;5015416;28;20011;-79
2020/12/03 09:39:36;;;;;;;;;;;;;;;2.38;96.38;97737.41;5024128;28;19959;-79
2020/12/03 09:42:02;;;;;;;;;;;;;;;2.42;96.47;97728.03;5031883;28;19936;-79
2020/12/03 09:44:28;;;;;;;;;;;;;;;2.34;96.61;97724.81;5031715;28;19958;-80
2020/12/03 09:46:53;;;;;;;;;;;;;;;2.44;96.10;97718.66;5031537;28;19913;-79
2020/12/03 09:49:18;;;;;;;;;;;;;;;2.44;95.82;97716.13;5031858;28;19916;-80
2020/12/03 09:51:45;;;;;;;;;;;;;;;2.53;95.76;97717.63;5031821;28;20301;-80
2020/12/03 09:54:10;;;;;;;;;;;;;;;2.45;96.22;97715.25;5032279;28;19917;-78
2020/12/03 09:56:36;;;;;;;;;;;;;;;2.72;96.20;97711.31;5032809;28;20015;-79
2020/12/03 09:59:02;;;;;;;;;;;;;;;2.64;96.46;97698.75;5031884;28;19924;-79
2020/12/03 10:01:36;;;;;;;;;;;;;;;2.64;95.96;97701.28;5031677;28;19913;-78
2020/12/03 10:04:20;;;;;;;;;;;;;;;2.56;95.92;97689.63;5032756;28;19917;-78
2020/12/03 10:06:47;;;;;;;;;;;;;;;2.60;96.04;97691.22;5032721;28;19916;-78
2020/12/03 10:09:18;;;;;;;;;;;;;;;2.60;95.77;97681.06;5032508;28;19940;-79
2020/12/03 10:11:44;;;;;;;;;;;;;;;2.51;96.06;97679.56;5032141;28;19927;-78
2020/12/03 10:14:44;;;;;;;;;;;;;;;2.71;95.36;97676.59;5032311;28;20008;-78
2020/12/03 10:17:10;;;;;;;;;;;;;;;2.66;96.02;97670.78;5002679;28;19929;-79
2020/12/03 10:19:40;;;;;;;;;;;;;;;2.56;96.31;97651.53;5018034;28;20289;-79
2020/12/03 10:22:06;;;;;;;;;;;;;;;2.58;96.88;97652.28;5032025;28;20003;-78
2020/12/03 10:24:39;;;;;;;;;;;;;;;2.55;96.26;97642.22;5031101;28;20468;-78
2020/12/03 10:27:11;;;;;;;;;;;;;;;2.58;96.70;97631.97;5029215;28;19928;-79
2020/12/03 10:29:41;;;;;;;;;;;;;;;2.51;96.23;97626.22;5030528;28;20286;-79
2020/12/03 10:32:07;;;;;;;;;;;;;;;2.54;96.46;97617.69;5031562;28;19913;-79
2020/12/03 10:34:32;;;;;;;;;;;;;;;2.56;96.48;97619.31;5030878;28;19956;-79
2020/12/03 10:37:01;;;;;;;;;;;;;;;2.44;96.62;97606.84;5030324;28;20443;-78
2020/12/03 10:39:29;;;;;;;;;;;;;;;2.57;96.63;97599.81;5031433;28;20046;-79
2020/12/03 10:41:54;;;;;;;;;;;;;;;2.38;96.79;97590.06;5029985;28;20011;-78
2020/12/03 10:44:21;;;;;;;;;;;;;;;2.67;96.85;97591.13;5030708;28;20046;-79
2020/12/03 10:46:49;;;;;;;;;;;;;;;2.46;96.63;97583.13;5025561;28;19921;-79
2020/12/03 10:49:15;;;;;;;;;;;;;;;2.44;97.18;97582.31;5028716;28;19921;-78
2020/12/03 10:51:41;;;;;;;;;;;;;;;2.43;97.42;97567.09;5029012;28;20436;-79
2020/12/03 10:54:07;;;;;;;;;;;;;;;2.51;97.42;97560.97;5030705;28;19957;-80
2020/12/03 10:56:36;;;;;;;;;;;;;;;2.44;97.89;97551.81;5013951;28;20011;-79
2020/12/03 10:59:09;;;;;;;;;;;;;;;2.35;98.30;97549.50;5030810;28;19927;-79
2020/12/03 11:01:34;;;;;;;;;;;;;;;2.47;98.26;97541.56;5037645;28;20592;-79
2020/12/03 11:04:04;;;;;;;;;;;;;;;2.41;97.90;97544.25;5031059;28;19921;-80
2020/12/03 11:06:29;;;;;;;;;;;;;;;2.50;98.09;97545.75;5031882;28;19956;-79
2020/12/03 11:08:58;;;;;;;;;;;;;;;2.33;98.90;97545.28;5031615;28;19955;-79
2020/12/03 11:11:24;;;;;;;;;;;;;;;2.38;98.57;97534.16;5031081;28;19968;-79
2020/12/03 11:13:49;;;;;;;;;;;;;;;2.47;98.52;97531.41;5031114;28;20036;-80
2020/12/03 11:16:15;;;;;;;;;;;;;;;2.35;98.97;97529.16;5031600;28;19929;-79
2020/12/03 11:18:41;;;;;;;;;;;;;;;2.39;98.45;97520.59;5031213;28;19917;-80
2020/12/03 11:21:08;;;;;;;;;;;;;;;2.39;98.71;97525.66;5031704;28;20363;-79
2020/12/03 11:23:33;;;;;;;;;;;;;;;2.43;98.83;97534.88;5032521;28;19940;-80
2020/12/03 11:26:05;;;;;;;;;;;;;;;2.43;98.86;97531.53;5032499;28;19925;-80
2020/12/03 11:28:35;;;;;;;;;;;;;;;2.39;98.78;97520.59;5030856;28;19925;-79
2020/12/03 11:31:02;;;;;;;;;;;;;;;2.51;98.67;97527.09;5030412;28;19913;-80
2020/12/03 11:33:32;;;;;;;;;;;;;;;2.51;98.48;97514.41;5030766;28;19917;-79
2020/12/03 11:36:04;;;;;;;;;;;;;;;2.51;98.24;97507.63;5031034;28;19924;-80
2020/12/03 11:38:31;;;;;;;;;;;;;;;2.48;98.77;97506.84;5016717;28;19913;-79
2020/12/03 11:40:57;;;;;;;;;;;;;;;2.62;98.14;97498.88;5030270;28;20401;-79
2020/12/03 11:46:43;;;;;;;;;;;;;;;2.64;97.90;97485.25;5029761;28;19928;-79
2020/12/03 11:49:07;;;;;;;;;;;;;;;2.59;97.99;97471.84;5030075;28;19927;-79
2020/12/03 11:51:33;;;;;;;;;;;;;;;2.57;98.00;97453.25;5020056;28;19917;-80
2020/12/03 11:54:16;;;;;;;;;;;;;;;2.60;98.15;97455.72;5030780;28;19971;-79
2020/12/03 11:56:41;;;;;;;;;;;;;;;2.66;97.96;97447.09;5029132;28;19917;-79
2020/12/03 11:59:30;;;;;;;;;;;;;;;2.70;98.11;97444.44;5022510;28;19920;-79
2020/12/03 12:01:56;;;;;;;;;;;;;;;2.72;97.66;97436.78;5026808;28;19913;-80
2020/12/03 12:04:30;;;;;;;;;;;;;;;2.75;97.64;97431.63;5029316;28;19913;-79
2020/12/03 12:07:09;;;;;;;;;;;;;;;2.90;97.02;97425.31;5014408;28;19920;-80
2020/12/03 12:09:50;;;;;;;;;;;;;;;2.89;96.92;97416.81;5024217;28;20322;-79
2020/12/03 12:12:16;;;;;;;;;;;;;;;2.91;97.15;97406.63;5031281;28;19921;-79
2020/12/03 12:14:42;;;;;;;;;;;;;;;2.86;97.18;97399.13;5029494;28;20326;-79
2020/12/03 12:17:08;;;;;;;;;;;;;;;2.89;96.56;97399.03;5029924;28;20015;-80
2020/12/03 12:19:34;;;;;;;;;;;;;;;2.87;96.52;97389.78;5030070;28;20004;-80
2020/12/03 12:22:00;;;;;;;;;;;;;;;2.96;96.40;97384.44;5029853;28;19932;-79
2020/12/03 12:24:26;;;;;;;;;;;;;;;2.98;96.46;97376.78;5030562;28;19917;-79
2020/12/03 12:26:51;;;;;;;;;;;;;;;2.92;96.53;97381.16;5030540;28;19983;-79
2020/12/03 12:29:16;;;;;;;;;;;;;;;3.05;96.43;97378.28;5029234;28;19921;-80
2020/12/03 12:31:42;;;;;;;;;;;;;;;3.16;95.95;97370.34;5029626;28;20285;-79
2020/12/03 12:34:07;;;;;;;;;;;;;;;3.06;96.59;97370.63;5029918;28;19917;-79
2020/12/03 12:36:32;;;;;;;;;;;;;;;3.20;95.70;97356.66;5029820;28;19917;-79
2020/12/03 12:38:58;;;;;;;;;;;;;;;3.19;96.04;97353.28;5013027;28;19959;-80
2020/12/03 12:41:23;;;;;;;;;;;;;;;3.14;96.04;97347.50;5031367;28;19987;-79
2020/12/03 12:43:48;;;;;;;;;;;;;;;3.12;95.82;97344.16;5028796;28;20374;-78
2020/12/03 12:46:23;;;;;;;;;;;;;;;3.07;95.56;97333.28;5029494;28;20000;-79
2020/12/03 12:48:49;;;;;;;;;;;;;;;3.03;95.92;97326.63;5027613;28;19976;-79
2020/12/03 12:51:15;;;;;;;;;;;;;;;3.07;95.83;97323.13;5031547;28;19951;-79
2020/12/03 12:53:40;;;;;;;;;;;;;;;3.21;95.82;97317.63;5028012;28;19953;-80
2020/12/03 12:56:05;;;;;;;;;;;;;;;3.21;95.17;97315.09;5027337;28;19932;-79
2020/12/03 12:58:30;;;;;;;;;;;;;;;3.18;95.63;97316.00;5028159;28;19940;-80
2020/12/03 13:00:56;;;;;;;;;;;;;;;3.19;95.62;97317.66;5009573;28;19936;-80
2020/12/03 13:03:21;;;;;;;;;;;;;;;3.10;95.40;97308.63;5028265;28;20389;-78
2020/12/03 13:05:47;;;;;;;;;;;;;;;3.09;95.32;97309.47;5027248;28;19920;-79
2020/12/03 13:08:12;;;;;;;;;;;;;;;3.13;95.47;97302.59;5028491;28;20329;-79